createdAt,value
2024-01-05T00:00:29.138Z,9.10
2024-01-05T00:10:52.872Z,9.00
2024-01-05T00:20:56.668Z,8.90
2024-01-05T00:31:00.814Z,9.00
2024-01-05T00:41:06.114Z,8.90
2024-01-05T00:51:09.895Z,9.20
2024-01-05T01:01:13.848Z,9.30
2024-01-05T01:11:20.402Z,10.00
2024-01-05T01:21:24.153Z,9.40
2024-01-05T01:31:30.525Z,12.00
2024-01-05T01:41:34.860Z,12.40
2024-01-05T01:51:39.349Z,11.80
2024-01-05T02:01:47.176Z,10.70
2024-01-05T02:11:51.042Z,9.20
2024-01-05T02:21:57.944Z,8.00
2024-01-05T02:32:01.646Z,6.10
2024-01-05T02:42:06.549Z,5.80
2024-01-05T02:52:12.465Z,5.00
2024-01-05T03:02:16.745Z,4.20
2024-01-05T03:12:22.178Z,4.10
2024-01-05T03:22:28.665Z,4.10
2024-01-05T03:32:34.735Z,3.80
2024-01-05T03:42:39.566Z,3.40
2024-01-05T03:52:43.346Z,3.50
2024-01-05T04:02:48.198Z,2.90
2024-01-05T04:12:52.202Z,2.70
2024-01-05T04:22:56.068Z,5.50
2024-01-05T04:33:00.980Z,2.40
2024-01-05T04:43:05.853Z,2.40
2024-01-05T04:53:09.580Z,2.00
2024-01-05T05:03:17.419Z,1.50
2024-01-05T05:13:21.416Z,1.90
2024-01-05T05:23:26.172Z,3.50
2024-01-05T05:33:30.691Z,3.00
2024-01-05T05:43:34.743Z,1.70
2024-01-05T05:53:39.083Z,2.00
2024-01-05T06:03:46.718Z,4.80
2024-01-05T06:13:50.733Z,2.10
2024-01-05T06:23:55.407Z,2.40
2024-01-05T06:34:02.963Z,4.30
2024-01-05T06:44:09.515Z,2.50
2024-01-05T06:54:14.947Z,2.70
2024-01-05T07:04:18.897Z,2.60
2024-01-05T07:14:24.884Z,2.70
2024-01-05T07:24:28.795Z,2.90
2024-01-05T07:34:33.518Z,2.80
2024-01-05T07:44:37.605Z,3.10
2024-01-05T07:54:42.248Z,3.00
2024-01-05T08:04:47.085Z,3.10
2024-01-05T08:14:51.704Z,2.80
2024-01-05T08:24:55.982Z,3.50
2024-01-05T08:34:59.877Z,3.70
2024-01-05T08:45:06.262Z,3.60
2024-01-05T08:55:10.428Z,7.50
2024-01-05T09:05:14.750Z,3.30
2024-01-05T09:15:19.540Z,2.70
2024-01-05T09:25:23.812Z,4.40
2024-01-05T09:35:27.638Z,2.80
2024-01-05T09:45:33.818Z,3.10
2024-01-05T09:55:37.671Z,3.20
2024-01-05T10:05:41.614Z,4.00
2024-01-05T10:16:04.315Z,3.30
2024-01-05T10:26:17.319Z,3.40
2024-01-05T10:36:25.908Z,3.60
2024-01-05T10:46:33.511Z,3.70
2024-01-05T10:56:43.202Z,3.80
2024-01-05T11:06:47.521Z,3.80
2024-01-05T11:16:57.002Z,3.90
2024-01-05T11:27:00.917Z,4.50
2024-01-05T11:37:09.530Z,4.20
2024-01-05T11:47:49.733Z,7.30
2024-01-05T11:57:53.696Z,4.80
2024-01-05T12:07:57.949Z,4.60
2024-01-05T12:18:16.572Z,4.50
2024-01-05T12:28:24.148Z,4.60
2024-01-05T12:38:30.168Z,4.80
2024-01-05T12:48:35.515Z,4.90
2024-01-05T12:58:44.098Z,5.00
2024-01-05T13:08:48.862Z,4.70
2024-01-05T13:18:52.774Z,6.70
2024-01-05T13:28:56.917Z,4.50
2024-01-05T13:39:02.345Z,4.40
2024-01-05T13:49:06.353Z,4.50
2024-01-05T13:59:10.825Z,4.50
2024-01-05T14:09:14.673Z,6.70
2024-01-05T14:19:19.153Z,7.80
2024-01-05T14:29:26.013Z,5.10
2024-01-05T14:39:31.163Z,5.10
2024-01-05T14:49:35.711Z,5.10
2024-01-05T14:59:39.821Z,6.20
2024-01-05T15:09:45.643Z,5.40
2024-01-05T15:19:51.907Z,6.50
2024-01-05T15:29:56.241Z,9.00
2024-01-05T15:40:00.454Z,7.20
2024-01-05T15:50:06.064Z,6.70
2024-01-05T16:00:10.664Z,8.50
2024-01-05T16:10:18.497Z,7.20
2024-01-05T16:20:22.635Z,7.10
2024-01-05T16:30:28.983Z,6.90
2024-01-05T16:40:32.880Z,7.20
2024-01-05T16:50:36.744Z,8.40
2024-01-05T17:00:40.889Z,7.10
2024-01-05T17:10:47.896Z,8.10
2024-01-05T17:20:55.274Z,14.40
2024-01-05T17:30:59.890Z,8.20
2024-01-05T17:41:04.147Z,8.30
2024-01-05T17:51:09.269Z,10.50
2024-01-05T18:01:14.224Z,17.40
2024-01-05T18:11:25.872Z,9.70
2024-01-05T18:21:29.691Z,10.00
2024-01-05T18:31:37.186Z,11.70
2024-01-05T18:41:41.894Z,14.00
2024-01-05T18:51:45.831Z,14.60
2024-01-05T19:01:49.829Z,27.00
2024-01-05T19:11:53.782Z,27.10
2024-01-05T19:21:59.887Z,24.10
2024-01-05T19:32:04.830Z,43.00
2024-01-05T19:42:08.844Z,50.00
2024-01-05T19:52:13.902Z,63.30
2024-01-05T20:02:18.411Z,31.60
2024-01-05T20:12:22.244Z,35.60
2024-01-05T20:22:26.484Z,50.80
2024-01-05T20:32:30.679Z,46.80
2024-01-05T20:42:34.625Z,50.40
2024-01-05T20:52:39.305Z,55.80
2024-01-05T21:02:43.681Z,64.20
2024-01-05T21:12:47.895Z,60.30
2024-01-05T21:22:54.479Z,40.70
2024-01-05T21:32:59.000Z,31.30
2024-01-05T21:43:03.522Z,38.30
2024-01-05T21:53:08.582Z,37.30
2024-01-05T22:03:13.784Z,33.80
2024-01-05T22:13:18.163Z,29.30
2024-01-05T22:23:22.500Z,33.20
2024-01-05T22:33:28.546Z,34.60
2024-01-05T22:43:32.450Z,48.00
2024-01-05T22:53:37.159Z,67.00
2024-01-05T23:03:42.882Z,50.10
2024-01-05T23:13:46.707Z,35.10
2024-01-05T23:23:51.965Z,50.20
2024-01-05T23:34:08.632Z,55.70
2024-01-05T23:44:19.978Z,44.50
2024-01-05T23:54:24.388Z,38.40
